Time;durP1;ratioP1;P1;durP2;ratioP2;P2;SDS_P1;SDS_P2;PMS_P1;PMS_P2;Temp;Humidity;BMP_temperature;BMP_pressure;BME280_temperature;BME280_humidity;BME280_pressure;Samples;Min_cycle;Max_cycle;Signal;HPM_P1;HPM_P2
2023/06/08 00:02:23;;;;;;;19.60;6.80;;;;;;;;;;5028612;28;20474;-82
2023/06/08 00:04:52;;;;;;;15.90;7.73;;;;;;;;;;5029015;28;20534;-81
2023/06/08 00:07:21;;;;;;;20.77;6.60;;;;;;;;;;5028141;28;20513;-82
2023/06/08 00:09:50;;;;;;;11.40;7.93;;;;;;;;;;5028479;28;20510;-81
2023/06/08 00:12:21;;;;;;;17.40;7.30;;;;;;;;;;5027647;28;20515;-81
2023/06/08 00:14:50;;;;;;;17.70;7.00;;;;;;;;;;5026891;28;20467;-81
2023/06/08 00:17:21;;;;;;;15.50;6.90;;;;;;;;;;5030075;28;20459;-82
2023/06/08 00:19:48;;;;;;;25.10;8.83;;;;;;;;;;5028169;28;20464;-81
2023/06/08 00:22:18;;;;;;;16.10;7.63;;;;;;;;;;5029271;28;20511;-82
2023/06/08 00:24:45;;;;;;;15.30;6.73;;;;;;;;;;5028062;28;20456;-82
2023/06/08 00:27:22;;;;;;;12.63;6.93;;;;;;;;;;5029457;28;20538;-82
2023/06/08 00:29:55;;;;;;;16.43;7.10;;;;;;;;;;5026136;28;20791;-82
2023/06/08 00:32:23;;;;;;;14.43;7.50;;;;;;;;;;5027114;28;20451;-82
2023/06/08 00:34:53;;;;;;;13.07;7.43;;;;;;;;;;5025514;28;20896;-81
2023/06/08 00:37:21;;;;;;;20.03;9.07;;;;;;;;;;5025906;28;20460;-82
2023/06/08 00:39:48;;;;;;;14.80;7.83;;;;;;;;;;5025957;28;20447;-81
2023/06/08 00:42:16;;;;;;;15.67;7.43;;;;;;;;;;5026910;28;20486;-83
2023/06/08 00:44:49;;;;;;;14.87;8.20;;;;;;;;;;5026471;28;20507;-81
2023/06/08 00:47:26;;;;;;;14.87;6.90;;;;;;;;;;5026999;28;20530;-82
2023/06/08 00:49:56;;;;;;;11.23;7.13;;;;;;;;;;5035352;28;20486;-81
2023/06/08 00:52:25;;;;;;;15.00;7.70;;;;;;;;;;5046273;28;20538;-81
2023/06/08 00:54:58;;;;;;;16.47;7.33;;;;;;;;;;5046882;28;20478;-81
2023/06/08 00:57:28;;;;;;;14.60;7.70;;;;;;;;;;5047254;28;20521;-83
2023/06/08 00:59:57;;;;;;;13.20;6.60;;;;;;;;;;5044720;28;20471;-82
2023/06/08 01:02:26;;;;;;;12.20;7.47;;;;;;;;;;5045377;28;20459;-81
2023/06/08 01:04:56;;;;;;;16.13;8.30;;;;;;;;;;5046174;28;20537;-81
2023/06/08 01:07:32;;;;;;;12.70;7.90;;;;;;;;;;5046115;28;20490;-81
2023/06/08 01:13:09;;;;;;;14.97;7.80;;;;;;;;;;5045832;28;20473;-81
2023/06/08 01:15:46;;;;;;;18.97;8.27;;;;;;;;;;5046596;28;21087;-81
2023/06/08 01:18:23;;;;;;;12.43;7.80;;;;;;;;;;5048293;28;20534;-80
2023/06/08 01:21:07;;;;;;;20.57;7.73;;;;;;;;;;5047457;28;20458;-80
2023/06/08 01:23:37;;;;;;;10.50;7.27;;;;;;;;;;5049252;28;20473;-80
2023/06/08 01:26:10;;;;;;;13.93;8.23;;;;;;;;;;5048664;28;20462;-81
2023/06/08 01:28:40;;;;;;;18.60;8.87;;;;;;;;;;5049759;28;20584;-81
2023/06/08 01:31:07;;;;;;;17.53;8.57;;;;;;;;;;5047615;28;20490;-82
2023/06/08 01:33:35;;;;;;;14.97;7.97;;;;;;;;;;5045233;28;20482;-81
2023/06/08 01:36:07;;;;;;;14.10;7.37;;;;;;;;;;5046379;28;20462;-83
2023/06/08 01:38:40;;;;;;;13.87;7.90;;;;;;;;;;5045704;28;20470;-83
2023/06/08 01:41:11;;;;;;;21.40;8.60;;;;;;;;;;5045485;28;20458;-82
2023/06/08 01:43:40;;;;;;;13.97;8.30;;;;;;;;;;5044994;28;20459;-81
2023/06/08 01:46:09;;;;;;;13.60;7.70;;;;;;;;;;5045793;28;20509;-81
2023/06/08 01:48:40;;;;;;;15.40;9.50;;;;;;;;;;5046258;28;20770;-81
2023/06/08 01:51:09;;;;;;;23.40;8.20;;;;;;;;;;5045161;28;20549;-81
2023/06/08 01:53:37;;;;;;;16.73;9.33;;;;;;;;;;5046284;28;20491;-82
2023/06/08 01:56:05;;;;;;;15.50;7.60;;;;;;;;;;5046275;28;20462;-82
2023/06/08 01:58:34;;;;;;;13.60;7.37;;;;;;;;;;5047928;28;20459;-81
2023/06/08 02:01:02;;;;;;;18.23;8.53;;;;;;;;;;5048912;28;20853;-82
2023/06/08 02:03:30;;;;;;;12.67;6.50;;;;;;;;;;5029227;28;20692;-81
2023/06/08 02:05:57;;;;;;;17.00;9.40;;;;;;;;;;5029938;28;20467;-81
2023/06/08 02:14:19;;;;;;;15.80;8.10;;;;;;;;;;5027278;28;20939;-82
2023/06/08 02:16:47;;;;;;;14.80;8.27;;;;;;;;;;5047315;28;20864;-81
2023/06/08 02:19:16;;;;;;;14.93;8.40;;;;;;;;;;5047194;28;20459;-82
2023/06/08 02:21:50;;;;;;;16.37;8.23;;;;;;;;;;5049695;28;20474;-82
2023/06/08 02:24:19;;;;;;;15.30;7.50;;;;;;;;;;5047226;28;20745;-82
2023/06/08 02:26:47;;;;;;;17.80;10.53;;;;;;;;;;5048179;28;20485;-83
2023/06/08 02:29:14;;;;;;;12.73;8.23;;;;;;;;;;5045862;28;20501;-82
2023/06/08 02:31:43;;;;;;;11.97;7.30;;;;;;;;;;5047741;28;20467;-83
2023/06/08 02:34:12;;;;;;;21.27;8.67;;;;;;;;;;5045622;28;20746;-82
2023/06/08 02:36:39;;;;;;;14.53;7.67;;;;;;;;;;5046950;28;20489;-82
2023/06/08 02:39:11;;;;;;;16.03;8.70;;;;;;;;;;5048713;28;20489;-82
2023/06/08 02:41:39;;;;;;;12.53;8.50;;;;;;;;;;5047862;28;20459;-81
2023/06/08 02:44:06;;;;;;;20.60;8.30;;;;;;;;;;5048163;28;20485;-83
2023/06/08 02:46:33;;;;;;;18.67;7.93;;;;;;;;;;5044779;28;20659;-81
2023/06/08 02:49:02;;;;;;;14.70;7.97;;;;;;;;;;5045365;28;20497;-83
2023/06/08 02:51:30;;;;;;;15.20;8.50;;;;;;;;;;5044590;28;20459;-82
2023/06/08 02:53:57;;;;;;;12.23;7.67;;;;;;;;;;5045168;28;20462;-82
2023/06/08 02:56:25;;;;;;;11.37;7.70;;;;;;;;;;5044640;28;20466;-82
2023/06/08 02:58:54;;;;;;;11.97;7.83;;;;;;;;;;5047727;28;20823;-82
2023/06/08 03:01:21;;;;;;;13.20;7.10;;;;;;;;;;5043270;28;21933;-80
2023/06/08 03:03:51;;;;;;;18.97;8.07;;;;;;;;;;5046105;28;20481;-82
2023/06/08 03:06:20;;;;;;;12.50;7.60;;;;;;;;;;5046519;28;20443;-82
2023/06/08 03:08:48;;;;;;;14.53;7.60;;;;;;;;;;5047817;28;20528;-81
2023/06/08 03:11:16;;;;;;;13.53;8.30;;;;;;;;;;5045288;28;20689;-83
2023/06/08 03:13:43;;;;;;;17.53;8.20;;;;;;;;;;5043220;28;20490;-80
2023/06/08 03:16:10;;;;;;;12.17;7.17;;;;;;;;;;5045526;28;20481;-81
2023/06/08 03:18:39;;;;;;;15.70;8.27;;;;;;;;;;5045673;28;20515;-83
2023/06/08 03:21:08;;;;;;;15.83;7.53;;;;;;;;;;5048179;28;20482;-83
2023/06/08 03:23:38;;;;;;;17.03;8.07;;;;;;;;;;5046216;28;20466;-80
2023/06/08 03:26:05;;;;;;;13.27;7.80;;;;;;;;;;5045159;28;20459;-81
2023/06/08 03:28:32;;;;;;;15.50;7.30;;;;;;;;;;5045479;28;21034;-83
2023/06/08 03:31:00;;;;;;;12.90;8.63;;;;;;;;;;5047102;28;20857;-79
2023/06/08 03:33:27;;;;;;;12.60;6.87;;;;;;;;;;5043165;28;20446;-82
2023/06/08 03:35:54;;;;;;;21.20;7.53;;;;;;;;;;5041707;28;20745;-82
2023/06/08 03:38:22;;;;;;;15.20;9.20;;;;;;;;;;5043450;28;20453;-83
2023/06/08 03:40:50;;;;;;;17.47;7.20;;;;;;;;;;5039932;28;20454;-82
2023/06/08 03:43:18;;;;;;;17.90;8.10;;;;;;;;;;5039401;28;20458;-82
2023/06/08 03:45:45;;;;;;;14.07;7.80;;;;;;;;;;5041620;28;20497;-82
2023/06/08 03:48:13;;;;;;;15.33;8.03;;;;;;;;;;5043202;28;20494;-81
2023/06/08 03:50:43;;;;;;;20.03;8.57;;;;;;;;;;5044932;28;20455;-82
2023/06/08 03:53:12;;;;;;;14.10;8.20;;;;;;;;;;5043280;28;20594;-83
2023/06/08 03:55:39;;;;;;;16.10;7.27;;;;;;;;;;5041865;28;20455;-83
2023/06/08 03:58:08;;;;;;;16.20;8.20;;;;;;;;;;5040394;28;20447;-82
2023/06/08 04:00:37;;;;;;;15.77;7.23;;;;;;;;;;5040553;28;20932;-81
2023/06/08 04:03:05;;;;;;;12.27;7.60;;;;;;;;;;5027019;28;20469;-81
2023/06/08 04:05:33;;;;;;;14.33;8.17;;;;;;;;;;5022725;28;20490;-81
2023/06/08 04:08:02;;;;;;;10.90;6.90;;;;;;;;;;5022546;28;20487;-82
2023/06/08 04:10:29;;;;;;;16.70;8.03;;;;;;;;;;5022355;28;20458;-84
2023/06/08 04:12:57;;;;;;;12.00;6.93;;;;;;;;;;5022890;28;20455;-80
2023/06/08 04:15:26;;;;;;;13.63;7.70;;;;;;;;;;5023657;28;20846;-82
2023/06/08 04:17:54;;;;;;;11.70;7.00;;;;;;;;;;5023258;28;20869;-82
2023/06/08 04:20:22;;;;;;;13.87;7.67;;;;;;;;;;5024168;28;20467;-82
2023/06/08 04:22:49;;;;;;;11.87;6.90;;;;;;;;;;5022689;28;20526;-82
2023/06/08 04:25:17;;;;;;;19.37;8.67;;;;;;;;;;5023715;28;20488;-80
2023/06/08 04:27:45;;;;;;;17.00;8.10;;;;;;;;;;5024020;28;20458;-82
2023/06/08 04:30:13;;;;;;;16.03;8.13;;;;;;;;;;5027618;28;20447;-82
2023/06/08 04:32:41;;;;;;;14.60;8.00;;;;;;;;;;5023565;28;20474;-81
2023/06/08 04:35:09;;;;;;;14.03;7.60;;;;;;;;;;5025782;28;20459;-82
2023/06/08 04:37:36;;;;;;;21.13;8.23;;;;;;;;;;5025534;28;20513;-82
2023/06/08 04:40:09;;;;;;;15.10;8.17;;;;;;;;;;5025580;28;20486;-81
2023/06/08 04:42:38;;;;;;;14.33;7.47;;;;;;;;;;5023708;28;20518;-82
2023/06/08 04:45:08;;;;;;;15.73;7.40;;;;;;;;;;5027038;28;20818;-82
2023/06/08 04:47:36;;;;;;;12.83;8.63;;;;;;;;;;5024339;28;20518;-81
2023/06/08 04:50:08;;;;;;;21.10;8.80;;;;;;;;;;5024367;28;20900;-80
2023/06/08 04:52:40;;;;;;;12.90;8.03;;;;;;;;;;5027813;28;20448;-81
2023/06/08 04:55:08;;;;;;;16.20;8.60;;;;;;;;;;5031593;28;20444;-83
2023/06/08 04:57:51;;;;;;;13.63;8.60;;;;;;;;;;5031753;28;20463;-79
2023/06/08 05:00:26;;;;;;;18.10;7.77;;;;;;;;;;5030405;28;20443;-82
2023/06/08 05:02:57;;;;;;;14.80;8.83;;;;;;;;;;5045592;28;20442;-83
2023/06/08 05:05:26;;;;;;;14.70;7.73;;;;;;;;;;5049070;28;20534;-82
2023/06/08 05:07:58;;;;;;;17.93;8.20;;;;;;;;;;5050293;28;20443;-82
2023/06/08 05:10:33;;;;;;;14.90;7.90;;;;;;;;;;5050050;28;20463;-83
2023/06/08 05:13:13;;;;;;;19.27;9.60;;;;;;;;;;5047190;28;20454;-83
2023/06/08 05:15:45;;;;;;;18.30;9.50;;;;;;;;;;5048130;28;20466;-81
2023/06/08 05:18:33;;;;;;;12.50;7.63;;;;;;;;;;5051714;28;20447;-81
2023/06/08 05:21:03;;;;;;;11.30;7.90;;;;;;;;;;5047760;28;20457;-82
2023/06/08 05:23:30;;;;;;;16.47;8.40;;;;;;;;;;5047131;28;20447;-80
2023/06/08 05:26:04;;;;;;;16.10;8.90;;;;;;;;;;5047993;28;20485;-81
2023/06/08 05:28:38;;;;;;;18.77;8.20;;;;;;;;;;5045944;28;20486;-82
2023/06/08 05:31:07;;;;;;;16.83;8.80;;;;;;;;;;5044362;28;20488;-81
2023/06/08 05:33:37;;;;;;;13.70;8.40;;;;;;;;;;5044519;28;20681;-81
2023/06/08 05:36:08;;;;;;;13.43;7.67;;;;;;;;;;5039774;28;20465;-80
2023/06/08 05:38:36;;;;;;;17.10;8.70;;;;;;;;;;5045207;28;20801;-82
2023/06/08 05:41:03;;;;;;;15.77;8.50;;;;;;;;;;5041930;28;20550;-80
2023/06/08 05:43:30;;;;;;;17.27;8.37;;;;;;;;;;5041408;28;20595;-81
2023/06/08 05:45:58;;;;;;;14.07;8.47;;;;;;;;;;5041642;28;20446;-80
2023/06/08 05:48:25;;;;;;;14.20;8.63;;;;;;;;;;5038804;28;20905;-82
2023/06/08 05:50:52;;;;;;;20.73;9.43;;;;;;;;;;5025894;28;20460;-81
2023/06/08 05:53:21;;;;;;;14.70;7.70;;;;;;;;;;5021440;28;20455;-82
2023/06/08 05:55:48;;;;;;;15.43;8.93;;;;;;;;;;5018152;28;21000;-81
2023/06/08 05:58:16;;;;;;;13.33;9.60;;;;;;;;;;5017263;28;20846;-80
2023/06/08 06:00:44;;;;;;;14.53;8.97;;;;;;;;;;5016585;28;20458;-80
2023/06/08 06:03:12;;;;;;;22.70;9.90;;;;;;;;;;5030270;28;20834;-81
2023/06/08 06:05:40;;;;;;;18.80;10.00;;;;;;;;;;5043383;28;20462;-81
2023/06/08 06:08:07;;;;;;;17.40;10.17;;;;;;;;;;5041549;28;21042;-82
2023/06/08 06:10:36;;;;;;;17.40;9.30;;;;;;;;;;5040729;28;20459;-81
2023/06/08 06:13:05;;;;;;;16.70;10.03;;;;;;;;;;5045038;28;20447;-81
2023/06/08 06:15:39;;;;;;;18.63;10.80;;;;;;;;;;5027164;28;20483;-81
2023/06/08 06:18:09;;;;;;;19.10;9.93;;;;;;;;;;5035758;28;20522;-83
2023/06/08 06:20:37;;;;;;;15.27;10.50;;;;;;;;;;5032671;28;20459;-83
2023/06/08 06:23:11;;;;;;;17.03;9.97;;;;;;;;;;5029603;28;20507;-81
2023/06/08 06:25:40;;;;;;;17.97;9.80;;;;;;;;;;5032925;28;20471;-82
2023/06/08 06:28:07;;;;;;;17.47;9.40;;;;;;;;;;5032072;28;20479;-81
2023/06/08 06:30:35;;;;;;;15.23;9.20;;;;;;;;;;5039752;28;20454;-82
2023/06/08 06:33:07;;;;;;;15.23;8.67;;;;;;;;;;5024459;28;20465;-81
2023/06/08 06:35:52;;;;;;;11.77;8.07;;;;;;;;;;5032119;28;20455;-80
2023/06/08 06:38:19;;;;;;;14.07;8.77;;;;;;;;;;5036242;28;20706;-82
2023/06/08 06:41:03;;;;;;;16.20;9.73;;;;;;;;;;5041650;28;20451;-82
2023/06/08 06:43:35;;;;;;;18.40;9.67;;;;;;;;;;5043654;28;20470;-82
2023/06/08 06:46:02;;;;;;;16.80;9.40;;;;;;;;;;5043293;28;20482;-82
2023/06/08 06:48:30;;;;;;;14.63;9.17;;;;;;;;;;5043626;28;20458;-81
2023/06/08 06:51:01;;;;;;;16.53;8.83;;;;;;;;;;5042033;28;20766;-83
2023/06/08 06:53:29;;;;;;;17.10;9.77;;;;;;;;;;5044038;28;20450;-81
2023/06/08 06:55:58;;;;;;;18.90;9.40;;;;;;;;;;5022355;28;20444;-81
2023/06/08 06:58:28;;;;;;;16.83;9.20;;;;;;;;;;5030260;28;20479;-82
2023/06/08 07:01:01;;;;;;;16.73;10.10;;;;;;;;;;5028678;28;20627;-81
2023/06/08 07:03:42;;;;;;;14.03;8.73;;;;;;;;;;5032913;28;20482;-82
2023/06/08 07:06:22;;;;;;;20.63;8.50;;;;;;;;;;5035255;28;20673;-80
2023/06/08 07:11:44;;;;;;;14.23;9.27;;;;;;;;;;5025240;28;20487;-81
2023/06/08 07:14:12;;;;;;;15.40;9.87;;;;;;;;;;5021291;28;20455;-81
2023/06/08 07:16:41;;;;;;;21.10;10.60;;;;;;;;;;5006445;28;20452;-82
2023/06/08 07:19:10;;;;;;;17.90;8.83;;;;;;;;;;5011429;28;20437;-80
2023/06/08 07:21:38;;;;;;;18.63;9.70;;;;;;;;;;5000504;28;20798;-80
2023/06/08 07:24:06;;;;;;;18.23;9.47;;;;;;;;;;5009996;28;20468;-80
2023/06/08 07:26:33;;;;;;;16.30;9.23;;;;;;;;;;5011670;28;20468;-80
2023/06/08 07:29:03;;;;;;;17.60;10.30;;;;;;;;;;5005774;28;20485;-81
2023/06/08 07:31:31;;;;;;;15.93;10.23;;;;;;;;;;5006204;28;20523;-80
2023/06/08 07:34:02;;;;;;;15.30;9.27;;;;;;;;;;5014400;28;20510;-81
2023/06/08 07:36:29;;;;;;;17.50;9.60;;;;;;;;;;5021046;28;20502;-82
2023/06/08 07:38:57;;;;;;;15.53;9.50;;;;;;;;;;5015746;28;20457;-83
2023/06/08 07:41:26;;;;;;;17.33;9.23;;;;;;;;;;5018703;28;20471;-83
2023/06/08 07:43:55;;;;;;;16.80;10.70;;;;;;;;;;5019720;28;20466;-80
2023/06/08 07:46:32;;;;;;;14.20;9.70;;;;;;;;;;5011466;28;20456;-80
2023/06/08 07:49:11;;;;;;;15.30;9.90;;;;;;;;;;5018400;28;20471;-82
2023/06/08 07:51:39;;;;;;;14.73;8.27;;;;;;;;;;5010781;28;20527;-79
2023/06/08 07:54:35;;;;;;;16.73;11.37;;;;;;;;;;5014916;28;20568;-80
2023/06/08 08:02:38;;;;;;;17.57;11.30;;;;;;;;;;5003767;28;20468;-79
2023/06/08 08:05:10;;;;;;;19.40;12.27;;;;;;;;;;5012687;28;20459;-80
2023/06/08 08:07:39;;;;;;;18.00;9.90;;;;;;;;;;5022145;28;20475;-78
2023/06/08 08:10:09;;;;;;;17.53;9.80;;;;;;;;;;5015892;28;20483;-80
2023/06/08 08:12:43;;;;;;;17.27;9.93;;;;;;;;;;5020245;28;20455;-79
2023/06/08 08:15:12;;;;;;;14.80;8.73;;;;;;;;;;5023093;28;20459;-77
2023/06/08 08:20:28;;;;;;;14.97;9.20;;;;;;;;;;5016570;28;20464;-79
2023/06/08 08:22:57;;;;;;;19.03;9.47;;;;;;;;;;5020509;28;20481;-79
2023/06/08 08:25:25;;;;;;;16.10;10.53;;;;;;;;;;5007807;28;20469;-79
2023/06/08 08:27:54;;;;;;;13.60;9.13;;;;;;;;;;5009977;28;20527;-80
2023/06/08 08:30:23;;;;;;;11.90;9.50;;;;;;;;;;5023901;28;20570;-79
2023/06/08 08:33:07;;;;;;;12.97;8.60;;;;;;;;;;5018857;28;20488;-78
2023/06/08 08:35:48;;;;;;;;;;;;;;;;;;;;;
2023/06/08 08:38:15;;;;;;;19.67;9.00;;;;;;;;;;5029812;28;20490;-78
2023/06/08 08:40:43;;;;;;;14.57;9.67;;;;;;;;;;5040721;28;20526;-80
2023/06/08 08:43:17;;;;;;;14.20;8.00;;;;;;;;;;5044662;28;20497;-79
2023/06/08 08:45:48;;;;;;;10.97;7.93;;;;;;;;;;5032897;28;20462;-80
2023/06/08 08:48:25;;;;;;;14.30;8.83;;;;;;;;;;5030320;28;20530;-78
2023/06/08 08:51:00;;;;;;;14.73;7.97;;;;;;;;;;5038766;28;20485;-80
2023/06/08 08:53:33;;;;;;;20.00;8.63;;;;;;;;;;5041119;28;20489;-79
2023/06/08 08:56:09;;;;;;;12.90;7.77;;;;;;;;;;5026802;28;20456;-81
2023/06/08 08:58:38;;;;;;;12.60;8.40;;;;;;;;;;5043256;28;20545;-80
2023/06/08 09:01:08;;;;;;;13.57;8.67;;;;;;;;;;5041027;28;20797;-78
2023/06/08 09:03:38;;;;;;;10.20;6.83;;;;;;;;;;5023954;28;20447;-80
2023/06/08 09:06:09;;;;;;;16.90;8.37;;;;;;;;;;5026883;28;20439;-79
2023/06/08 09:08:37;;;;;;;15.63;7.00;;;;;;;;;;5029719;28;20456;-81
2023/06/08 09:11:09;;;;;;;14.13;7.13;;;;;;;;;;5024769;28;20512;-80
2023/06/08 09:13:39;;;;;;;14.23;7.47;;;;;;;;;;5040549;28;20470;-80
2023/06/08 09:16:10;;;;;;;11.90;8.47;;;;;;;;;;5042354;28;20486;-79
2023/06/08 09:18:41;;;;;;;9.73;6.60;;;;;;;;;;5042648;28;20459;-78
2023/06/08 09:21:21;;;;;;;9.93;7.60;;;;;;;;;;5034713;28;20470;-81
2023/06/08 09:24:04;;;;;;;11.83;7.07;;;;;;;;;;5033015;28;20604;-81
2023/06/08 09:26:32;;;;;;;12.67;8.00;;;;;;;;;;5028755;28;20520;-80
2023/06/08 09:29:01;;;;;;;13.63;7.13;;;;;;;;;;5039826;28;20475;-81
2023/06/08 09:31:30;;;;;;;11.00;7.50;;;;;;;;;;5039461;28;20443;-80
2023/06/08 09:34:10;;;;;;;15.03;7.80;;;;;;;;;;5045277;28;20462;-81
2023/06/08 09:36:39;;;;;;;10.83;6.13;;;;;;;;;;5035517;28;20536;-81
2023/06/08 09:39:08;;;;;;;10.30;6.47;;;;;;;;;;5039847;28;20477;-83
2023/06/08 09:41:37;;;;;;;15.07;8.00;;;;;;;;;;5028134;28;21110;-78
2023/06/08 09:44:17;;;;;;;13.37;9.33;;;;;;;;;;5026524;28;20494;-83
2023/06/08 09:46:46;;;;;;;9.83;6.53;;;;;;;;;;5026594;28;20459;-80
2023/06/08 09:49:14;;;;;;;11.70;6.63;;;;;;;;;;5039478;28;20545;-80
2023/06/08 09:51:46;;;;;;;14.17;7.20;;;;;;;;;;5053781;28;20961;-79
2023/06/08 09:54:15;;;;;;;11.80;6.80;;;;;;;;;;5050374;28;20458;-80
2023/06/08 09:56:46;;;;;;;9.50;6.90;;;;;;;;;;5052248;28;20455;-79
2023/06/08 09:59:16;;;;;;;9.80;5.90;;;;;;;;;;5042411;28;20462;-78
2023/06/08 10:01:45;;;;;;;14.00;6.87;;;;;;;;;;5045925;28;20446;-77
2023/06/08 10:04:16;;;;;;;7.60;5.50;;;;;;;;;;5047702;28;20455;-76
2023/06/08 10:06:46;;;;;;;11.53;7.53;;;;;;;;;;5048990;28;20439;-80
2023/06/08 10:09:17;;;;;;;10.63;6.53;;;;;;;;;;5044676;28;20958;-79
2023/06/08 10:11:45;;;;;;;13.00;5.80;;;;;;;;;;5031787;28;20769;-81
2023/06/08 10:14:14;;;;;;;8.30;5.57;;;;;;;;;;5043103;28;20799;-80
2023/06/08 10:16:44;;;;;;;6.80;5.20;;;;;;;;;;5025592;28;20574;-78
2023/06/08 10:19:12;;;;;;;8.23;4.87;;;;;;;;;;5031898;28;20459;-80
2023/06/08 10:21:40;;;;;;;9.43;5.53;;;;;;;;;;5026277;28;20762;-81
2023/06/08 10:24:10;;;;;;;8.80;5.90;;;;;;;;;;5029601;28;20448;-79
2023/06/08 10:26:37;;;;;;;8.67;6.30;;;;;;;;;;5035692;28;20447;-81
2023/06/08 10:29:06;;;;;;;12.13;6.27;;;;;;;;;;5027928;28;20478;-81
2023/06/08 10:31:34;;;;;;;9.13;6.03;;;;;;;;;;5025433;28;20552;-79
2023/06/08 10:34:07;;;;;;;13.37;5.93;;;;;;;;;;5037688;28;20451;-80
2023/06/08 10:36:41;;;;;;;7.77;5.73;;;;;;;;;;5029934;28;20500;-80
2023/06/08 10:39:30;;;;;;;7.63;5.90;;;;;;;;;;5038673;28;20486;-80
2023/06/08 10:42:05;;;;;;;15.53;7.87;;;;;;;;;;5029460;28;20518;-80
2023/06/08 10:44:33;;;;;;;8.73;5.73;;;;;;;;;;5037051;28;20446;-80
2023/06/08 10:47:02;;;;;;;14.17;5.77;;;;;;;;;;5039838;28;20451;-79
2023/06/08 10:49:31;;;;;;;8.20;5.40;;;;;;;;;;5025105;28;20468;-80
2023/06/08 10:51:59;;;;;;;7.13;5.27;;;;;;;;;;5035688;28;20542;-78
2023/06/08 10:54:33;;;;;;;9.30;5.37;;;;;;;;;;5035938;28;20526;-80
2023/06/08 10:57:12;;;;;;;9.33;5.57;;;;;;;;;;5036475;28;20547;-82
2023/06/08 10:59:39;;;;;;;9.40;5.57;;;;;;;;;;5040730;28;20468;-80
2023/06/08 11:02:07;;;;;;;7.53;6.30;;;;;;;;;;5043296;28;20463;-78
2023/06/08 11:04:35;;;;;;;8.30;5.10;;;;;;;;;;5028531;28;20823;-79
2023/06/08 11:07:08;;;;;;;7.67;4.83;;;;;;;;;;5041855;28;20503;-79
2023/06/08 11:09:37;;;;;;;9.30;5.70;;;;;;;;;;5030621;28;20510;-79
2023/06/08 11:12:07;;;;;;;9.17;5.20;;;;;;;;;;5027813;28;20464;-79
2023/06/08 11:14:36;;;;;;;9.73;5.83;;;;;;;;;;5027814;28;22097;-82
2023/06/08 11:17:08;;;;;;;11.13;5.23;;;;;;;;;;5037880;28;20514;-78
2023/06/08 11:19:36;;;;;;;7.40;5.03;;;;;;;;;;5038523;28;20506;-80
2023/06/08 11:22:09;;;;;;;10.97;5.40;;;;;;;;;;5025588;28;20448;-79
2023/06/08 11:24:37;;;;;;;6.30;4.77;;;;;;;;;;5044031;28;20801;-80
2023/06/08 11:27:18;;;;;;;8.30;5.60;;;;;;;;;;5045291;28;20492;-79
2023/06/08 11:29:46;;;;;;;5.20;4.40;;;;;;;;;;5031448;28;20475;-81
2023/06/08 11:32:16;;;;;;;7.90;4.47;;;;;;;;;;5039130;28;20474;-81
2023/06/08 11:34:45;;;;;;;7.23;5.00;;;;;;;;;;5034331;28;20455;-80
2023/06/08 11:37:12;;;;;;;15.23;5.60;;;;;;;;;;5040663;28;20498;-79
2023/06/08 11:39:43;;;;;;;7.47;5.10;;;;;;;;;;5038849;28;20459;-79
2023/06/08 11:42:12;;;;;;;7.10;5.00;;;;;;;;;;5036496;28;20790;-77
2023/06/08 11:44:39;;;;;;;10.00;4.57;;;;;;;;;;5041619;28;20462;-78
2023/06/08 11:47:10;;;;;;;8.17;5.43;;;;;;;;;;5027960;28;20777;-80
2023/06/08 11:49:53;;;;;;;7.20;4.80;;;;;;;;;;5041236;28;20458;-79
2023/06/08 11:52:24;;;;;;;11.33;5.30;;;;;;;;;;5039610;28;20459;-79
2023/06/08 11:54:55;;;;;;;11.53;4.50;;;;;;;;;;5037405;28;20822;-78
2023/06/08 11:57:39;;;;;;;10.03;5.10;;;;;;;;;;5038255;28;20443;-80
2023/06/08 12:00:09;;;;;;;5.93;4.63;;;;;;;;;;5035625;28;20472;-80
2023/06/08 12:02:38;;;;;;;5.93;4.93;;;;;;;;;;5029149;28;20522;-80
2023/06/08 12:05:08;;;;;;;7.50;4.30;;;;;;;;;;5025125;28;20471;-78
2023/06/08 12:08:05;;;;;;;9.60;4.83;;;;;;;;;;5029019;28;20444;-79
2023/06/08 12:10:46;;;;;;;6.90;4.90;;;;;;;;;;5030469;28;20570;-77
2023/06/08 12:13:19;;;;;;;9.63;5.40;;;;;;;;;;5031447;28;20902;-79
2023/06/08 12:15:47;;;;;;;7.37;4.77;;;;;;;;;;5037001;28;20459;-78
2023/06/08 12:18:19;;;;;;;8.30;5.13;;;;;;;;;;5036952;28;20645;-79
2023/06/08 12:20:47;;;;;;;6.47;4.77;;;;;;;;;;5035904;28;20522;-76
2023/06/08 12:23:18;;;;;;;8.40;4.90;;;;;;;;;;5028238;28;20463;-77
2023/06/08 12:25:45;;;;;;;8.57;5.50;;;;;;;;;;5028733;28;20463;-78
2023/06/08 12:28:22;;;;;;;11.23;5.17;;;;;;;;;;5029671;28;20467;-79
2023/06/08 12:30:52;;;;;;;8.60;5.40;;;;;;;;;;5019594;28;20491;-78
2023/06/08 12:33:24;;;;;;;5.97;4.57;;;;;;;;;;5025742;28;20442;-79
2023/06/08 12:35:53;;;;;;;5.53;4.20;;;;;;;;;;5027737;28;20494;-78
2023/06/08 12:38:21;;;;;;;5.50;4.53;;;;;;;;;;5032494;28;20447;-78
2023/06/08 12:40:56;;;;;;;6.20;5.00;;;;;;;;;;5019818;28;20862;-80
2023/06/08 12:43:26;;;;;;;9.40;4.30;;;;;;;;;;5035603;28;20494;-79
2023/06/08 12:45:55;;;;;;;6.23;5.07;;;;;;;;;;5025785;28;20463;-79
2023/06/08 12:48:28;;;;;;;6.30;4.47;;;;;;;;;;5026086;28;20452;-79
2023/06/08 12:50:57;;;;;;;7.03;4.50;;;;;;;;;;5034304;28;20493;-80
2023/06/08 12:53:25;;;;;;;10.90;4.60;;;;;;;;;;5036207;28;20459;-79
2023/06/08 12:55:54;;;;;;;6.90;4.60;;;;;;;;;;5034010;28;20569;-79
2023/06/08 12:58:22;;;;;;;7.53;4.83;;;;;;;;;;5036244;28;20477;-81
2023/06/08 13:00:51;;;;;;;5.80;4.10;;;;;;;;;;5026875;28;20913;-79
2023/06/08 13:03:24;;;;;;;5.83;4.90;;;;;;;;;;5019476;28;20483;-79
2023/06/08 13:05:53;;;;;;;8.70;4.40;;;;;;;;;;5024806;28;21133;-80
2023/06/08 13:08:21;;;;;;;6.30;4.13;;;;;;;;;;5022611;28;21192;-79
2023/06/08 13:10:48;;;;;;;5.67;3.93;;;;;;;;;;5025647;28;21329;-80
2023/06/08 13:13:16;;;;;;;8.17;4.33;;;;;;;;;;5021487;28;20922;-79
2023/06/08 13:15:47;;;;;;;9.10;5.07;;;;;;;;;;5027663;28;21010;-82
2023/06/08 13:18:17;;;;;;;6.53;5.00;;;;;;;;;;5035236;28;20470;-80
2023/06/08 13:20:48;;;;;;;7.00;4.50;;;;;;;;;;5029649;28;20637;-78
2023/06/08 13:23:16;;;;;;;5.10;3.97;;;;;;;;;;5027138;28;20471;-78
2023/06/08 13:25:54;;;;;;;6.17;4.30;;;;;;;;;;5028246;28;20475;-78
2023/06/08 13:28:21;;;;;;;8.13;4.73;;;;;;;;;;5028912;28;20885;-77
2023/06/08 13:30:50;;;;;;;8.00;4.17;;;;;;;;;;5024801;28;20503;-79
2023/06/08 13:33:19;;;;;;;19.77;4.90;;;;;;;;;;5025621;28;20455;-80
2023/06/08 13:36:04;;;;;;;8.80;4.70;;;;;;;;;;5029298;28;20479;-80
2023/06/08 13:38:32;;;;;;;5.73;4.70;;;;;;;;;;5032142;28;20458;-80
2023/06/08 13:41:00;;;;;;;7.90;4.70;;;;;;;;;;5025811;28;20458;-81
2023/06/08 13:43:33;;;;;;;8.40;4.20;;;;;;;;;;5035561;28;20466;-81
2023/06/08 13:46:04;;;;;;;5.47;4.13;;;;;;;;;;5032724;28;20450;-80
2023/06/08 13:48:35;;;;;;;7.67;4.57;;;;;;;;;;5038526;28;20448;-79
2023/06/08 13:51:06;;;;;;;5.83;3.93;;;;;;;;;;5031858;28;20496;-79
2023/06/08 13:53:48;;;;;;;5.83;4.60;;;;;;;;;;5024791;28;20618;-80
2023/06/08 13:56:18;;;;;;;7.17;4.87;;;;;;;;;;5030582;28;20470;-78
2023/06/08 14:01:35;;;;;;;10.63;4.50;;;;;;;;;;5030442;28;20508;-78
2023/06/08 14:04:09;;;;;;;5.70;4.03;;;;;;;;;;5031349;28;20547;-79
2023/06/08 14:06:37;;;;;;;7.53;4.60;;;;;;;;;;5032835;28;20447;-79
2023/06/08 14:09:11;;;;;;;7.93;4.23;;;;;;;;;;5042509;28;20530;-78
2023/06/08 14:11:44;;;;;;;7.10;4.70;;;;;;;;;;5039619;28;20524;-79
2023/06/08 14:14:12;;;;;;;9.13;4.83;;;;;;;;;;5038361;28;20549;-79
2023/06/08 14:16:39;;;;;;;10.80;5.57;;;;;;;;;;5039383;28;20481;-78
2023/06/08 14:19:08;;;;;;;9.50;5.20;;;;;;;;;;5044482;28;20530;-79
2023/06/08 14:21:35;;;;;;;7.63;4.30;;;;;;;;;;5045435;28;20454;-78
2023/06/08 14:24:03;;;;;;;6.93;4.77;;;;;;;;;;5042452;28;20454;-79
2023/06/08 14:26:31;;;;;;;8.57;4.67;;;;;;;;;;5042996;28;20459;-81
2023/06/08 14:28:59;;;;;;;6.20;4.90;;;;;;;;;;5044526;28;20530;-80
2023/06/08 14:31:28;;;;;;;7.77;5.50;;;;;;;;;;5041352;28;20498;-80
2023/06/08 14:33:59;;;;;;;7.70;5.33;;;;;;;;;;5043374;28;20447;-81
2023/06/08 14:36:29;;;;;;;10.33;9.20;;;;;;;;;;5035407;28;20507;-80
2023/06/08 14:38:58;;;;;;;6.93;4.53;;;;;;;;;;5024882;28;20460;-82
2023/06/08 14:41:27;;;;;;;5.47;4.80;;;;;;;;;;5026457;28;20470;-81
2023/06/08 14:43:59;;;;;;;7.40;6.00;;;;;;;;;;5012319;28;20842;-81
2023/06/08 14:46:27;;;;;;;9.00;4.70;;;;;;;;;;5025544;28;20448;-81
2023/06/08 14:48:55;;;;;;;5.23;4.60;;;;;;;;;;5018439;28;20452;-81
2023/06/08 14:51:33;;;;;;;7.57;4.33;;;;;;;;;;5025770;28;20475;-81
2023/06/08 14:54:09;;;;;;;5.93;4.60;;;;;;;;;;5019888;28;20459;-82
2023/06/08 14:56:37;;;;;;;8.43;4.13;;;;;;;;;;5015680;28;21091;-80
2023/06/08 14:59:07;;;;;;;8.03;5.17;;;;;;;;;;5021288;28;20457;-80
2023/06/08 15:01:34;;;;;;;12.43;4.67;;;;;;;;;;5009270;28;20448;-80
2023/06/08 15:04:01;;;;;;;6.13;5.00;;;;;;;;;;5022194;28;20448;-81
2023/06/08 15:06:29;;;;;;;6.90;4.70;;;;;;;;;;5025392;28;20448;-79
2023/06/08 15:08:57;;;;;;;7.33;4.57;;;;;;;;;;5023205;28;20757;-81
2023/06/08 15:11:25;;;;;;;5.17;4.67;;;;;;;;;;5021151;28;20494;-80
2023/06/08 15:13:53;;;;;;;5.40;4.60;;;;;;;;;;5021449;28;20455;-82
2023/06/08 15:16:21;;;;;;;7.97;5.10;;;;;;;;;;5023316;28;20515;-80